sensor_id;sensor_type;location;lat;lon;timestamp;pressure;altitude;pressure_sealevel;temperature;humidity
69127;BME280;56688;50.234;19.292;2023-08-06T00:01:45;97224.34;;;20.65;88.46
69127;BME280;56688;50.234;19.292;2023-08-06T00:04:12;97204.70;;;20.65;88.25
69127;BME280;56688;50.234;19.292;2023-08-06T00:06:38;97187.73;;;20.64;88.23
69127;BME280;56688;50.234;19.292;2023-08-06T00:09:06;97194.86;;;20.59;88.17
69127;BME280;56688;50.234;19.292;2023-08-06T00:11:32;97200.67;;;20.51;88.27
69127;BME280;56688;50.234;19.292;2023-08-06T00:13:59;97208.23;;;20.42;88.84
69127;BME280;56688;50.234;19.292;2023-08-06T00:16:26;97192.05;;;20.36;89.44
69127;BME280;56688;50.234;19.292;2023-08-06T00:18:53;97173.69;;;20.37;89.82
69127;BME280;56688;50.234;19.292;2023-08-06T00:21:20;97150.55;;;20.39;89.89
69127;BME280;56688;50.234;19.292;2023-08-06T00:23:47;97101.42;;;20.39;89.82
69127;BME280;56688;50.234;19.292;2023-08-06T00:26:14;97080.67;;;20.41;89.56
69127;BME280;56688;50.234;19.292;2023-08-06T00:28:41;97062.34;;;20.42;89.53
69127;BME280;56688;50.234;19.292;2023-08-06T00:31:07;97055.92;;;20.43;89.44
69127;BME280;56688;50.234;19.292;2023-08-06T00:33:35;97057.33;;;20.44;89.39
69127;BME280;56688;50.234;19.292;2023-08-06T00:36:01;97065.79;;;20.45;89.49
69127;BME280;56688;50.234;19.292;2023-08-06T00:38:28;97086.45;;;20.47;89.38
69127;BME280;56688;50.234;19.292;2023-08-06T00:40:55;97076.25;;;20.47;89.27
69127;BME280;56688;50.234;19.292;2023-08-06T00:43:22;97068.42;;;20.49;89.34
69127;BME280;56688;50.234;19.292;2023-08-06T00:45:49;97092.83;;;20.49;89.06
69127;BME280;56688;50.234;19.292;2023-08-06T00:48:16;97057.94;;;20.43;89.17
69127;BME280;56688;50.234;19.292;2023-08-06T00:50:43;97031.62;;;20.42;89.25
69127;BME280;56688;50.234;19.292;2023-08-06T00:53:10;97014.59;;;20.41;89.26
69127;BME280;56688;50.234;19.292;2023-08-06T00:55:41;97048.85;;;20.38;89.22
69127;BME280;56688;50.234;19.292;2023-08-06T00:58:11;97059.50;;;20.32;89.56
69127;BME280;56688;50.234;19.292;2023-08-06T01:00:38;97082.90;;;20.29;89.67
69127;BME280;56688;50.234;19.292;2023-08-06T01:03:05;97098.66;;;20.30;90.08
69127;BME280;56688;50.234;19.292;2023-08-06T01:05:32;97100.78;;;20.30;90.12
69127;BME280;56688;50.234;19.292;2023-08-06T01:13:46;97076.80;;;20.26;90.38
69127;BME280;56688;50.234;19.292;2023-08-06T01:16:17;97074.99;;;20.28;90.04
69127;BME280;56688;50.234;19.292;2023-08-06T01:18:47;97038.77;;;20.27;89.85
69127;BME280;56688;50.234;19.292;2023-08-06T01:21:17;97018.54;;;20.27;89.74
69127;BME280;56688;50.234;19.292;2023-08-06T01:23:45;97014.44;;;20.30;89.83
69127;BME280;56688;50.234;19.292;2023-08-06T01:26:33;96996.31;;;20.30;89.57
69127;BME280;56688;50.234;19.292;2023-08-06T01:29:22;96983.27;;;20.28;89.36
69127;BME280;56688;50.234;19.292;2023-08-06T01:31:51;96968.77;;;20.29;89.29
69127;BME280;56688;50.234;19.292;2023-08-06T01:34:23;96955.06;;;20.28;89.19
69127;BME280;56688;50.234;19.292;2023-08-06T01:36:51;96966.64;;;20.26;88.83
69127;BME280;56688;50.234;19.292;2023-08-06T01:39:18;96979.45;;;20.25;88.85
69127;BME280;56688;50.234;19.292;2023-08-06T01:41:48;96988.08;;;20.24;88.79
69127;BME280;56688;50.234;19.292;2023-08-06T01:44:16;96995.77;;;20.20;88.59
69127;BME280;56688;50.234;19.292;2023-08-06T01:46:44;97011.14;;;20.18;88.89
69127;BME280;56688;50.234;19.292;2023-08-06T01:49:11;97017.77;;;20.17;88.73
69127;BME280;56688;50.234;19.292;2023-08-06T01:51:38;97008.94;;;20.05;88.65
69127;BME280;56688;50.234;19.292;2023-08-06T01:54:11;97022.38;;;20.05;88.87
69127;BME280;56688;50.234;19.292;2023-08-06T01:56:38;97019.79;;;19.97;89.10
69127;BME280;56688;50.234;19.292;2023-08-06T01:59:08;97014.40;;;19.95;89.51
69127;BME280;56688;50.234;19.292;2023-08-06T02:01:35;97012.66;;;19.95;89.53
69127;BME280;56688;50.234;19.292;2023-08-06T02:04:02;97004.53;;;19.95;89.62
69127;BME280;56688;50.234;19.292;2023-08-06T02:06:29;96996.89;;;19.94;89.64
69127;BME280;56688;50.234;19.292;2023-08-06T02:08:56;96992.33;;;19.95;89.36
69127;BME280;56688;50.234;19.292;2023-08-06T02:11:23;96996.14;;;19.94;89.38
69127;BME280;56688;50.234;19.292;2023-08-06T02:13:50;96998.45;;;19.96;89.19
69127;BME280;56688;50.234;19.292;2023-08-06T02:16:18;96989.66;;;19.97;88.83
69127;BME280;56688;50.234;19.292;2023-08-06T02:18:45;96985.38;;;19.96;88.67
69127;BME280;56688;50.234;19.292;2023-08-06T02:21:12;96990.80;;;19.92;88.56
69127;BME280;56688;50.234;19.292;2023-08-06T02:23:39;96985.50;;;19.95;88.57
69127;BME280;56688;50.234;19.292;2023-08-06T02:26:06;96988.86;;;19.95;88.51
69127;BME280;56688;50.234;19.292;2023-08-06T02:28:33;96992.81;;;19.95;88.46
69127;BME280;56688;50.234;19.292;2023-08-06T02:31:00;96985.02;;;19.93;88.31
69127;BME280;56688;50.234;19.292;2023-08-06T02:33:27;96984.22;;;19.91;88.65
69127;BME280;56688;50.234;19.292;2023-08-06T02:36:03;96982.44;;;19.91;88.78
69127;BME280;56688;50.234;19.292;2023-08-06T02:38:31;96974.98;;;19.88;89.17
69127;BME280;56688;50.234;19.292;2023-08-06T02:41:02;96966.83;;;19.90;89.50
69127;BME280;56688;50.234;19.292;2023-08-06T02:43:29;96969.10;;;19.91;89.82
69127;BME280;56688;50.234;19.292;2023-08-06T02:45:57;96967.95;;;19.92;89.86
69127;BME280;56688;50.234;19.292;2023-08-06T02:48:25;96965.72;;;19.94;89.79
69127;BME280;56688;50.234;19.292;2023-08-06T02:50:52;96958.89;;;19.94;89.90
69127;BME280;56688;50.234;19.292;2023-08-06T02:53:19;96955.77;;;19.90;90.05
69127;BME280;56688;50.234;19.292;2023-08-06T02:55:49;96952.17;;;19.81;90.08
69127;BME280;56688;50.234;19.292;2023-08-06T02:58:18;96939.98;;;19.76;90.44
69127;BME280;56688;50.234;19.292;2023-08-06T03:01:06;96938.12;;;19.79;90.72
69127;BME280;56688;50.234;19.292;2023-08-06T03:03:46;96943.50;;;19.82;90.72
69127;BME280;56688;50.234;19.292;2023-08-06T03:06:18;96940.40;;;19.77;90.81
69127;BME280;56688;50.234;19.292;2023-08-06T03:08:47;96953.23;;;19.86;91.03
69127;BME280;56688;50.234;19.292;2023-08-06T03:11:14;96959.29;;;19.91;91.09
69127;BME280;56688;50.234;19.292;2023-08-06T03:13:41;96957.80;;;19.95;90.85
69127;BME280;56688;50.234;19.292;2023-08-06T03:16:09;96953.79;;;19.94;90.97
69127;BME280;56688;50.234;19.292;2023-08-06T03:18:36;96945.88;;;19.95;91.22
69127;BME280;56688;50.234;19.292;2023-08-06T03:21:04;96941.84;;;19.96;91.31
69127;BME280;56688;50.234;19.292;2023-08-06T03:23:31;96943.74;;;20.01;91.46
69127;BME280;56688;50.234;19.292;2023-08-06T03:26:02;96938.80;;;20.08;91.27
69127;BME280;56688;50.234;19.292;2023-08-06T03:28:30;96932.97;;;20.15;91.10
69127;BME280;56688;50.234;19.292;2023-08-06T03:31:02;96930.74;;;20.20;91.01
69127;BME280;56688;50.234;19.292;2023-08-06T03:33:35;96927.63;;;20.27;90.87
69127;BME280;56688;50.234;19.292;2023-08-06T03:36:03;96926.27;;;20.31;90.63
69127;BME280;56688;50.234;19.292;2023-08-06T03:38:31;96926.11;;;20.31;90.48
69127;BME280;56688;50.234;19.292;2023-08-06T03:41:01;96922.21;;;20.26;90.25
69127;BME280;56688;50.234;19.292;2023-08-06T03:43:28;96918.70;;;20.21;90.52
69127;BME280;56688;50.234;19.292;2023-08-06T03:45:55;96906.02;;;20.19;90.54
69127;BME280;56688;50.234;19.292;2023-08-06T03:48:22;96903.06;;;20.22;90.79
69127;BME280;56688;50.234;19.292;2023-08-06T03:50:49;96898.98;;;20.25;90.82
69127;BME280;56688;50.234;19.292;2023-08-06T03:53:17;96900.38;;;20.30;90.98
69127;BME280;56688;50.234;19.292;2023-08-06T03:55:44;96894.36;;;20.34;90.93
69127;BME280;56688;50.234;19.292;2023-08-06T03:58:11;96898.55;;;20.36;90.76
69127;BME280;56688;50.234;19.292;2023-08-06T04:00:38;96898.08;;;20.39;90.71
69127;BME280;56688;50.234;19.292;2023-08-06T04:03:05;96893.79;;;20.40;90.86
69127;BME280;56688;50.234;19.292;2023-08-06T04:05:32;96891.69;;;20.46;91.06
69127;BME280;56688;50.234;19.292;2023-08-06T04:07:59;96890.13;;;20.48;91.14
69127;BME280;56688;50.234;19.292;2023-08-06T04:10:26;96892.42;;;20.60;90.82
69127;BME280;56688;50.234;19.292;2023-08-06T04:12:53;96897.98;;;20.66;90.38
69127;BME280;56688;50.234;19.292;2023-08-06T04:15:20;96911.98;;;20.70;90.06
69127;BME280;56688;50.234;19.292;2023-08-06T04:17:47;96900.75;;;20.74;89.93
69127;BME280;56688;50.234;19.292;2023-08-06T04:20:14;96896.52;;;20.77;89.89
69127;BME280;56688;50.234;19.292;2023-08-06T04:22:41;96894.13;;;20.79;89.56
69127;BME280;56688;50.234;19.292;2023-08-06T04:25:09;96892.86;;;20.80;89.44
69127;BME280;56688;50.234;19.292;2023-08-06T04:27:36;96884.63;;;20.79;89.48
69127;BME280;56688;50.234;19.292;2023-08-06T04:30:08;96881.95;;;20.80;89.25
69127;BME280;56688;50.234;19.292;2023-08-06T04:32:36;96882.83;;;20.83;89.25
69127;BME280;56688;50.234;19.292;2023-08-06T04:35:03;96877.69;;;20.86;89.30
69127;BME280;56688;50.234;19.292;2023-08-06T04:37:31;96873.19;;;20.89;89.30
69127;BME280;56688;50.234;19.292;2023-08-06T04:39:58;96875.45;;;20.88;89.04
69127;BME280;56688;50.234;19.292;2023-08-06T04:42:25;96878.42;;;20.83;88.92
69127;BME280;56688;50.234;19.292;2023-08-06T04:44:52;96875.96;;;20.78;88.96
69127;BME280;56688;50.234;19.292;2023-08-06T04:47:19;96873.98;;;20.74;89.15
69127;BME280;56688;50.234;19.292;2023-08-06T04:49:46;96871.92;;;20.75;89.38
69127;BME280;56688;50.234;19.292;2023-08-06T04:52:13;96868.27;;;20.75;89.40
69127;BME280;56688;50.234;19.292;2023-08-06T04:54:39;96871.48;;;20.75;89.44
69127;BME280;56688;50.234;19.292;2023-08-06T04:57:06;96872.01;;;20.73;89.34
69127;BME280;56688;50.234;19.292;2023-08-06T04:59:33;96867.18;;;20.73;89.62
69127;BME280;56688;50.234;19.292;2023-08-06T05:02:00;96861.52;;;20.70;89.60
69127;BME280;56688;50.234;19.292;2023-08-06T05:04:27;96852.75;;;20.68;89.64
69127;BME280;56688;50.234;19.292;2023-08-06T05:06:55;96843.02;;;20.62;89.45
69127;BME280;56688;50.234;19.292;2023-08-06T05:09:21;96849.11;;;20.61;89.53
69127;BME280;56688;50.234;19.292;2023-08-06T05:11:49;96842.52;;;20.51;89.86
69127;BME280;56688;50.234;19.292;2023-08-06T05:14:17;96846.27;;;20.56;90.10
69127;BME280;56688;50.234;19.292;2023-08-06T05:16:44;96833.28;;;20.60;90.17
69127;BME280;56688;50.234;19.292;2023-08-06T05:19:11;96819.21;;;20.65;90.01
69127;BME280;56688;50.234;19.292;2023-08-06T05:21:38;96818.36;;;20.71;90.13
69127;BME280;56688;50.234;19.292;2023-08-06T05:24:05;96811.98;;;20.76;89.66
69127;BME280;56688;50.234;19.292;2023-08-06T05:26:32;96805.36;;;20.75;89.33
69127;BME280;56688;50.234;19.292;2023-08-06T05:29:00;96803.91;;;20.74;89.18
69127;BME280;56688;50.234;19.292;2023-08-06T05:31:27;96801.96;;;20.72;89.12
69127;BME280;56688;50.234;19.292;2023-08-06T05:33:55;96800.27;;;20.68;89.26
69127;BME280;56688;50.234;19.292;2023-08-06T05:36:22;96796.43;;;20.64;89.34
69127;BME280;56688;50.234;19.292;2023-08-06T05:38:49;96797.86;;;20.63;89.53
69127;BME280;56688;50.234;19.292;2023-08-06T05:41:16;96798.88;;;20.64;89.83
69127;BME280;56688;50.234;19.292;2023-08-06T05:43:43;96794.93;;;20.66;89.81
69127;BME280;56688;50.234;19.292;2023-08-06T05:46:10;96785.73;;;20.68;89.90
69127;BME280;56688;50.234;19.292;2023-08-06T05:48:37;96787.83;;;20.71;89.78
69127;BME280;56688;50.234;19.292;2023-08-06T05:51:04;96780.35;;;20.75;90.01
69127;BME280;56688;50.234;19.292;2023-08-06T05:53:31;96774.95;;;20.76;89.59
69127;BME280;56688;50.234;19.292;2023-08-06T05:55:57;96768.39;;;20.76;89.65
69127;BME280;56688;50.234;19.292;2023-08-06T05:58:25;96762.09;;;20.76;89.50
69127;BME280;56688;50.234;19.292;2023-08-06T06:00:55;96756.26;;;20.75;89.38
69127;BME280;56688;50.234;19.292;2023-08-06T06:03:22;96750.14;;;20.78;89.50
69127;BME280;56688;50.234;19.292;2023-08-06T06:05:50;96744.89;;;20.83;89.51
69127;BME280;56688;50.234;19.292;2023-08-06T06:08:17;96740.83;;;20.87;89.21
69127;BME280;56688;50.234;19.292;2023-08-06T06:10:44;96737.15;;;20.85;88.53
69127;BME280;56688;50.234;19.292;2023-08-06T06:13:11;96727.95;;;20.82;88.50
69127;BME280;56688;50.234;19.292;2023-08-06T06:15:38;96720.40;;;20.83;88.58
69127;BME280;56688;50.234;19.292;2023-08-06T06:18:05;96718.51;;;20.80;88.19
69127;BME280;56688;50.234;19.292;2023-08-06T06:20:32;96716.11;;;20.78;88.63
69127;BME280;56688;50.234;19.292;2023-08-06T06:23:00;96714.57;;;20.79;88.77
69127;BME280;56688;50.234;19.292;2023-08-06T06:25:27;96711.49;;;20.81;88.66
69127;BME280;56688;50.234;19.292;2023-08-06T06:27:54;96717.87;;;20.76;88.59
69127;BME280;56688;50.234;19.292;2023-08-06T06:30:22;96718.58;;;20.70;88.61
69127;BME280;56688;50.234;19.292;2023-08-06T06:32:49;96719.35;;;20.62;88.73
69127;BME280;56688;50.234;19.292;2023-08-06T06:35:16;96721.27;;;20.54;89.03
69127;BME280;56688;50.234;19.292;2023-08-06T06:37:43;96729.16;;;20.45;89.41
69127;BME280;56688;50.234;19.292;2023-08-06T06:40:10;96731.55;;;20.40;89.86
69127;BME280;56688;50.234;19.292;2023-08-06T06:42:37;96725.54;;;20.40;90.25
69127;BME280;56688;50.234;19.292;2023-08-06T06:45:07;96712.23;;;20.41;90.39
69127;BME280;56688;50.234;19.292;2023-08-06T06:47:35;96703.50;;;20.39;90.22
69127;BME280;56688;50.234;19.292;2023-08-06T06:50:02;96701.20;;;20.35;90.45
69127;BME280;56688;50.234;19.292;2023-08-06T06:52:29;96695.75;;;20.28;89.92
69127;BME280;56688;50.234;19.292;2023-08-06T06:54:56;96688.90;;;20.19;89.21
69127;BME280;56688;50.234;19.292;2023-08-06T06:57:23;96680.86;;;20.13;89.29
69127;BME280;56688;50.234;19.292;2023-08-06T06:59:50;96678.39;;;20.12;88.86
69127;BME280;56688;50.234;19.292;2023-08-06T07:02:17;96679.29;;;20.05;88.17
69127;BME280;56688;50.234;19.292;2023-08-06T07:04:44;96690.98;;;19.99;87.76
69127;BME280;56688;50.234;19.292;2023-08-06T07:07:11;96700.86;;;19.90;87.20
69127;BME280;56688;50.234;19.292;2023-08-06T07:09:38;96710.06;;;19.75;86.89
69127;BME280;56688;50.234;19.292;2023-08-06T07:12:05;96695.89;;;19.60;86.90
69127;BME280;56688;50.234;19.292;2023-08-06T07:14:32;96687.20;;;19.54;87.55
69127;BME280;56688;50.234;19.292;2023-08-06T07:16:59;96696.14;;;19.58;87.97
69127;BME280;56688;50.234;19.292;2023-08-06T07:19:26;96720.84;;;19.57;87.36
69127;BME280;56688;50.234;19.292;2023-08-06T07:21:53;96749.79;;;19.44;86.67
69127;BME280;56688;50.234;19.292;2023-08-06T07:24:22;96781.23;;;19.25;86.81
69127;BME280;56688;50.234;19.292;2023-08-06T07:26:49;96770.98;;;19.03;86.62
69127;BME280;56688;50.234;19.292;2023-08-06T07:29:17;96741.02;;;18.81;86.73
69127;BME280;56688;50.234;19.292;2023-08-06T07:31:47;96736.80;;;18.67;86.96
69127;BME280;56688;50.234;19.292;2023-08-06T07:34:14;96734.26;;;18.51;87.53
69127;BME280;56688;50.234;19.292;2023-08-06T07:36:45;96733.53;;;18.40;88.06
69127;BME280;56688;50.234;19.292;2023-08-06T07:39:12;96738.84;;;18.30;88.43
69127;BME280;56688;50.234;19.292;2023-08-06T07:41:39;96743.48;;;18.22;88.72
69127;BME280;56688;50.234;19.292;2023-08-06T07:44:08;96753.81;;;18.14;88.87
69127;BME280;56688;50.234;19.292;2023-08-06T07:46:35;96775.15;;;18.07;88.42
69127;BME280;56688;50.234;19.292;2023-08-06T07:49:02;96798.22;;;17.96;88.91
69127;BME280;56688;50.234;19.292;2023-08-06T07:51:29;96812.11;;;17.91;89.37
69127;BME280;56688;50.234;19.292;2023-08-06T07:53:56;96800.48;;;17.85;89.61
69127;BME280;56688;50.234;19.292;2023-08-06T07:56:23;96774.73;;;17.74;89.49
69127;BME280;56688;50.234;19.292;2023-08-06T07:58:50;96741.05;;;17.63;89.62
69127;BME280;56688;50.234;19.292;2023-08-06T08:01:17;96708.21;;;17.53;89.57
69127;BME280;56688;50.234;19.292;2023-08-06T08:03:44;96707.79;;;17.47;89.76
69127;BME280;56688;50.234;19.292;2023-08-06T08:06:11;96711.11;;;17.41;89.59
69127;BME280;56688;50.234;19.292;2023-08-06T08:08:38;96724.30;;;17.38;89.98
69127;BME280;56688;50.234;19.292;2023-08-06T08:11:05;96725.42;;;17.40;90.49
69127;BME280;56688;50.234;19.292;2023-08-06T08:13:32;96728.59;;;17.45;90.56
69127;BME280;56688;50.234;19.292;2023-08-06T08:16:01;96733.91;;;17.53;90.91
69127;BME280;56688;50.234;19.292;2023-08-06T08:18:28;96737.02;;;17.60;90.67
69127;BME280;56688;50.234;19.292;2023-08-06T08:20:56;96734.14;;;17.66;90.24
69127;BME280;56688;50.234;19.292;2023-08-06T08:23:23;96742.06;;;17.74;90.51
69127;BME280;56688;50.234;19.292;2023-08-06T08:25:50;96750.80;;;17.79;89.28
69127;BME280;56688;50.234;19.292;2023-08-06T08:28:18;96756.58;;;17.78;88.60
69127;BME280;56688;50.234;19.292;2023-08-06T08:30:45;96762.41;;;17.77;88.72
69127;BME280;56688;50.234;19.292;2023-08-06T08:33:12;96766.73;;;17.77;88.86
69127;BME280;56688;50.234;19.292;2023-08-06T08:35:39;96763.33;;;17.81;88.58
69127;BME280;56688;50.234;19.292;2023-08-06T08:38:13;96761.92;;;17.82;88.41
69127;BME280;56688;50.234;19.292;2023-08-06T08:40:50;96763.87;;;17.82;88.38
69127;BME280;56688;50.234;19.292;2023-08-06T08:43:20;96761.14;;;17.85;88.62
69127;BME280;56688;50.234;19.292;2023-08-06T08:45:52;96765.92;;;17.93;88.59
69127;BME280;56688;50.234;19.292;2023-08-06T08:48:22;96770.83;;;17.96;87.37
69127;BME280;56688;50.234;19.292;2023-08-06T08:50:50;96760.07;;;17.93;86.43
69127;BME280;56688;50.234;19.292;2023-08-06T08:53:18;96751.33;;;17.91;86.31
69127;BME280;56688;50.234;19.292;2023-08-06T08:55:48;96740.38;;;17.90;86.43
69127;BME280;56688;50.234;19.292;2023-08-06T08:58:15;96749.77;;;18.00;87.51
69127;BME280;56688;50.234;19.292;2023-08-06T09:00:45;96765.58;;;18.05;86.66
69127;BME280;56688;50.234;19.292;2023-08-06T09:03:12;96781.16;;;18.04;85.89
69127;BME280;56688;50.234;19.292;2023-08-06T09:05:44;96782.45;;;18.04;85.62
69127;BME280;56688;50.234;19.292;2023-08-06T09:08:15;96758.36;;;18.03;85.67
69127;BME280;56688;50.234;19.292;2023-08-06T09:10:44;96736.77;;;18.05;85.52
69127;BME280;56688;50.234;19.292;2023-08-06T09:13:15;96747.14;;;18.07;85.25
69127;BME280;56688;50.234;19.292;2023-08-06T09:15:42;96749.44;;;18.03;84.85
69127;BME280;56688;50.234;19.292;2023-08-06T09:18:11;96734.10;;;18.02;85.07
69127;BME280;56688;50.234;19.292;2023-08-06T09:20:39;96724.21;;;18.00;84.14
69127;BME280;56688;50.234;19.292;2023-08-06T09:23:10;96718.11;;;17.99;83.86
69127;BME280;56688;50.234;19.292;2023-08-06T09:25:38;96714.23;;;17.96;83.34
69127;BME280;56688;50.234;19.292;2023-08-06T09:28:07;96724.36;;;17.94;83.33
69127;BME280;56688;50.234;19.292;2023-08-06T09:30:36;96729.25;;;17.90;83.91
69127;BME280;56688;50.234;19.292;2023-08-06T09:33:09;96741.00;;;17.83;83.88
69127;BME280;56688;50.234;19.292;2023-08-06T09:35:37;96743.59;;;17.73;83.63
69127;BME280;56688;50.234;19.292;2023-08-06T09:38:06;96737.38;;;17.62;83.81
69127;BME280;56688;50.234;19.292;2023-08-06T09:40:38;96737.30;;;17.57;84.45
69127;BME280;56688;50.234;19.292;2023-08-06T09:43:13;96749.89;;;17.57;84.55
69127;BME280;56688;50.234;19.292;2023-08-06T09:45:40;96755.33;;;17.60;84.69
69127;BME280;56688;50.234;19.292;2023-08-06T09:48:08;96752.20;;;17.59;84.41
69127;BME280;56688;50.234;19.292;2023-08-06T09:50:37;96755.08;;;17.54;84.42
69127;BME280;56688;50.234;19.292;2023-08-06T09:53:06;96756.02;;;17.49;84.84
69127;BME280;56688;50.234;19.292;2023-08-06T09:55:33;96753.15;;;17.47;85.46
69127;BME280;56688;50.234;19.292;2023-08-06T09:58:00;96751.65;;;17.43;85.55
69127;BME280;56688;50.234;19.292;2023-08-06T10:00:28;96749.08;;;17.38;85.78
69127;BME280;56688;50.234;19.292;2023-08-06T10:03:00;96756.86;;;17.32;86.02
69127;BME280;56688;50.234;19.292;2023-08-06T10:05:28;96760.39;;;17.29;86.41
69127;BME280;56688;50.234;19.292;2023-08-06T10:07:57;96760.73;;;17.24;86.45
69127;BME280;56688;50.234;19.292;2023-08-06T10:10:25;96764.50;;;17.22;86.53
69127;BME280;56688;50.234;19.292;2023-08-06T10:12:56;96765.58;;;17.23;86.97
69127;BME280;56688;50.234;19.292;2023-08-06T10:15:26;96765.20;;;17.25;87.14
69127;BME280;56688;50.234;19.292;2023-08-06T10:17:57;96766.39;;;17.26;87.07
69127;BME280;56688;50.234;19.292;2023-08-06T10:20:25;96776.30;;;17.24;86.93
69127;BME280;56688;50.234;19.292;2023-08-06T10:23:00;96783.27;;;17.21;86.97
69127;BME280;56688;50.234;19.292;2023-08-06T10:25:31;96779.20;;;17.15;86.86
69127;BME280;56688;50.234;19.292;2023-08-06T10:28:00;96787.88;;;17.15;86.57
69127;BME280;56688;50.234;19.292;2023-08-06T10:30:29;96786.55;;;17.11;87.05
69127;BME280;56688;50.234;19.292;2023-08-06T10:32:59;96784.70;;;17.04;87.00
69127;BME280;56688;50.234;19.292;2023-08-06T10:38:14;96781.37;;;16.99;87.82
69127;BME280;56688;50.234;19.292;2023-08-06T10:40:48;96783.10;;;16.95;87.53
69127;BME280;56688;50.234;19.292;2023-08-06T10:45:53;96785.32;;;16.89;87.92
69127;BME280;56688;50.234;19.292;2023-08-06T10:48:37;96787.19;;;16.86;87.96
69127;BME280;56688;50.234;19.292;2023-08-06T10:51:07;96789.89;;;16.85;88.31
69127;BME280;56688;50.234;19.292;2023-08-06T10:53:35;96790.81;;;16.84;88.38
69127;BME280;56688;50.234;19.292;2023-08-06T10:56:13;96790.05;;;16.84;88.07
69127;BME280;56688;50.234;19.292;2023-08-06T10:58:42;96786.50;;;16.80;87.72
69127;BME280;56688;50.234;19.292;2023-08-06T11:01:10;96790.11;;;16.79;88.49
69127;BME280;56688;50.234;19.292;2023-08-06T11:03:38;96782.14;;;16.80;88.81
69127;BME280;56688;50.234;19.292;2023-08-06T11:06:07;96769.39;;;16.83;88.65
69127;BME280;56688;50.234;19.292;2023-08-06T11:08:36;96776.89;;;16.85;88.03
69127;BME280;56688;50.234;19.292;2023-08-06T11:11:13;96777.39;;;16.86;88.01
69127;BME280;56688;50.234;19.292;2023-08-06T11:13:42;96776.80;;;16.86;87.53
69127;BME280;56688;50.234;19.292;2023-08-06T11:16:09;96780.13;;;16.84;87.22
69127;BME280;56688;50.234;19.292;2023-08-06T11:18:37;96784.02;;;16.82;87.44
69127;BME280;56688;50.234;19.292;2023-08-06T11:21:03;96784.29;;;16.76;87.17
69127;BME280;56688;50.234;19.292;2023-08-06T11:23:30;96789.95;;;16.70;87.44
69127;BME280;56688;50.234;19.292;2023-08-06T11:25:57;96787.76;;;16.62;87.77
69127;BME280;56688;50.234;19.292;2023-08-06T11:28:25;96795.41;;;16.56;88.05
69127;BME280;56688;50.234;19.292;2023-08-06T11:30:53;96796.10;;;16.50;88.36
69127;BME280;56688;50.234;19.292;2023-08-06T11:33:23;96794.15;;;16.47;88.36
69127;BME280;56688;50.234;19.292;2023-08-06T11:35:53;96803.80;;;16.45;88.70
69127;BME280;56688;50.234;19.292;2023-08-06T11:38:21;96804.98;;;16.46;89.18
69127;BME280;56688;50.234;19.292;2023-08-06T11:40:50;96803.09;;;16.46;88.67
69127;BME280;56688;50.234;19.292;2023-08-06T11:43:20;96802.88;;;16.47;88.84
69127;BME280;56688;50.234;19.292;2023-08-06T11:45:56;96807.44;;;16.50;89.15
69127;BME280;56688;50.234;19.292;2023-08-06T11:48:23;96810.23;;;16.50;88.53
69127;BME280;56688;50.234;19.292;2023-08-06T11:50:54;96809.16;;;16.50;88.61
69127;BME280;56688;50.234;19.292;2023-08-06T11:53:27;96810.66;;;16.52;88.91
69127;BME280;56688;50.234;19.292;2023-08-06T11:55:55;96809.58;;;16.54;89.10
69127;BME280;56688;50.234;19.292;2023-08-06T11:58:22;96815.57;;;16.52;88.82
69127;BME280;56688;50.234;19.292;2023-08-06T12:00:49;96814.60;;;16.51;88.60
69127;BME280;56688;50.234;19.292;2023-08-06T12:03:19;96817.78;;;16.50;88.24
69127;BME280;56688;50.234;19.292;2023-08-06T12:05:46;96814.23;;;16.50;88.18
69127;BME280;56688;50.234;19.292;2023-08-06T12:08:13;96820.64;;;16.52;88.56
69127;BME280;56688;50.234;19.292;2023-08-06T12:10:40;96826.89;;;16.53;87.96
69127;BME280;56688;50.234;19.292;2023-08-06T12:13:07;96830.59;;;16.55;87.73
69127;BME280;56688;50.234;19.292;2023-08-06T12:15:35;96830.35;;;16.56;87.79
69127;BME280;56688;50.234;19.292;2023-08-06T12:18:02;96838.92;;;16.55;87.59
69127;BME280;56688;50.234;19.292;2023-08-06T12:20:29;96851.85;;;16.50;87.32
69127;BME280;56688;50.234;19.292;2023-08-06T12:22:56;96859.10;;;16.46;87.92
69127;BME280;56688;50.234;19.292;2023-08-06T12:25:23;96872.05;;;16.44;88.20
69127;BME280;56688;50.234;19.292;2023-08-06T12:27:50;96885.35;;;16.41;88.15
69127;BME280;56688;50.234;19.292;2023-08-06T12:30:17;96892.18;;;16.38;88.49
69127;BME280;56688;50.234;19.292;2023-08-06T12:32:44;96892.51;;;16.38;88.42
69127;BME280;56688;50.234;19.292;2023-08-06T12:35:12;96897.02;;;16.34;88.06
69127;BME280;56688;50.234;19.292;2023-08-06T12:37:41;96900.25;;;16.32;88.11
69127;BME280;56688;50.234;19.292;2023-08-06T12:40:10;96892.48;;;16.31;88.31
69127;BME280;56688;50.234;19.292;2023-08-06T12:42:57;96888.95;;;16.35;88.65
69127;BME280;56688;50.234;19.292;2023-08-06T12:45:26;96889.92;;;16.35;88.24
69127;BME280;56688;50.234;19.292;2023-08-06T12:47:53;96883.98;;;16.36;88.75
69127;BME280;56688;50.234;19.292;2023-08-06T12:50:20;96871.27;;;16.40;88.88
69127;BME280;56688;50.234;19.292;2023-08-06T12:52:47;96864.83;;;16.45;88.23
69127;BME280;56688;50.234;19.292;2023-08-06T12:55:15;96857.67;;;16.48;88.07
69127;BME280;56688;50.234;19.292;2023-08-06T12:57:41;96861.51;;;16.55;88.37
69127;BME280;56688;50.234;19.292;2023-08-06T13:00:26;96869.90;;;16.65;88.10
69127;BME280;56688;50.234;19.292;2023-08-06T13:02:53;96871.18;;;16.79;87.89
69127;BME280;56688;50.234;19.292;2023-08-06T13:05:21;96868.77;;;16.88;87.44
69127;BME280;56688;50.234;19.292;2023-08-06T13:07:47;96873.42;;;17.02;87.64